sensor_id;sensor_type;location;lat;lon;timestamp;temperature;humidity
44823;DHT22;51097;51.984;5.650;2023-02-13T00:02:14;11.20;99.90
44823;DHT22;51097;51.984;5.650;2023-02-13T00:04:40;11.20;99.90
44823;DHT22;51097;51.984;5.650;2023-02-13T00:07:08;11.20;99.90
44823;DHT22;51097;51.984;5.650;2023-02-13T00:09:36;11.20;99.90
44823;DHT22;51097;51.984;5.650;2023-02-13T00:12:01;11.10;99.90
44823;DHT22;51097;51.984;5.650;2023-02-13T00:14:27;11.10;99.90
44823;DHT22;51097;51.984;5.650;2023-02-13T00:16:52;11.10;99.90
44823;DHT22;51097;51.984;5.650;2023-02-13T00:19:18;11.10;99.90
44823;DHT22;51097;51.984;5.650;2023-02-13T00:21:43;11.10;99.90
44823;DHT22;51097;51.984;5.650;2023-02-13T00:24:09;11.20;99.90
44823;DHT22;51097;51.984;5.650;2023-02-13T00:26:34;11.10;99.90
44823;DHT22;51097;51.984;5.650;2023-02-13T00:29:00;11.20;99.90
44823;DHT22;51097;51.984;5.650;2023-02-13T00:31:26;11.10;99.90
44823;DHT22;51097;51.984;5.650;2023-02-13T00:33:51;11.10;99.90
44823;DHT22;51097;51.984;5.650;2023-02-13T00:36:19;11.00;99.90
44823;DHT22;51097;51.984;5.650;2023-02-13T00:38:45;11.00;99.90
44823;DHT22;51097;51.984;5.650;2023-02-13T00:41:11;11.00;99.90
44823;DHT22;51097;51.984;5.650;2023-02-13T00:43:37;11.10;99.90
44823;DHT22;51097;51.984;5.650;2023-02-13T00:46:03;11.10;99.90
44823;DHT22;51097;51.984;5.650;2023-02-13T00:48:31;11.00;99.90
44823;DHT22;51097;51.984;5.650;2023-02-13T00:50:58;11.00;99.90
44823;DHT22;51097;51.984;5.650;2023-02-13T00:53:24;11.00;99.90
44823;DHT22;51097;51.984;5.650;2023-02-13T00:55:50;11.00;99.90
44823;DHT22;51097;51.984;5.650;2023-02-13T00:58:16;11.00;99.90
44823;DHT22;51097;51.984;5.650;2023-02-13T01:00:42;11.00;99.90
44823;DHT22;51097;51.984;5.650;2023-02-13T01:03:09;10.80;99.90
44823;DHT22;51097;51.984;5.650;2023-02-13T01:05:34;11.10;99.90
44823;DHT22;51097;51.984;5.650;2023-02-13T01:08:00;11.00;99.90
44823;DHT22;51097;51.984;5.650;2023-02-13T01:10:26;11.00;99.90
44823;DHT22;51097;51.984;5.650;2023-02-13T01:12:52;11.00;99.90
44823;DHT22;51097;51.984;5.650;2023-02-13T01:15:18;11.00;99.90
44823;DHT22;51097;51.984;5.650;2023-02-13T01:17:44;11.00;99.90
44823;DHT22;51097;51.984;5.650;2023-02-13T01:20:11;11.00;99.90
44823;DHT22;51097;51.984;5.650;2023-02-13T01:22:37;11.00;99.90
44823;DHT22;51097;51.984;5.650;2023-02-13T01:25:02;11.00;99.90
44823;DHT22;51097;51.984;5.650;2023-02-13T01:27:28;11.00;99.90
44823;DHT22;51097;51.984;5.650;2023-02-13T01:29:54;11.00;99.90
44823;DHT22;51097;51.984;5.650;2023-02-13T01:32:20;11.00;99.90
44823;DHT22;51097;51.984;5.650;2023-02-13T01:34:46;11.00;99.90
44823;DHT22;51097;51.984;5.650;2023-02-13T01:37:12;11.00;99.90
44823;DHT22;51097;51.984;5.650;2023-02-13T01:39:37;11.00;99.90
44823;DHT22;51097;51.984;5.650;2023-02-13T01:42:03;11.10;99.90
44823;DHT22;51097;51.984;5.650;2023-02-13T01:47:12;11.00;99.90
44823;DHT22;51097;51.984;5.650;2023-02-13T01:49:39;11.00;99.90
44823;DHT22;51097;51.984;5.650;2023-02-13T01:52:07;11.10;99.90
44823;DHT22;51097;51.984;5.650;2023-02-13T01:54:34;11.10;99.90
44823;DHT22;51097;51.984;5.650;2023-02-13T01:57:17;11.00;99.90
44823;DHT22;51097;51.984;5.650;2023-02-13T01:59:54;11.00;99.90
44823;DHT22;51097;51.984;5.650;2023-02-13T02:02:21;11.10;99.90
44823;DHT22;51097;51.984;5.650;2023-02-13T02:04:48;11.10;99.90
44823;DHT22;51097;51.984;5.650;2023-02-13T02:07:19;11.20;99.90
44823;DHT22;51097;51.984;5.650;2023-02-13T02:09:46;11.10;99.90
44823;DHT22;51097;51.984;5.650;2023-02-13T02:14:54;11.00;99.90
44823;DHT22;51097;51.984;5.650;2023-02-13T02:17:22;11.00;99.90
44823;DHT22;51097;51.984;5.650;2023-02-13T02:23:29;11.10;99.90
44823;DHT22;51097;51.984;5.650;2023-02-13T02:28:47;11.10;99.90
44823;DHT22;51097;51.984;5.650;2023-02-13T02:31:53;11.10;99.90
44823;DHT22;51097;51.984;5.650;2023-02-13T02:37:31;11.20;99.90
44823;DHT22;51097;51.984;5.650;2023-02-13T02:42:55;11.00;99.90
44823;DHT22;51097;51.984;5.650;2023-02-13T02:48:27;11.10;99.90
44823;DHT22;51097;51.984;5.650;2023-02-13T02:56:31;11.00;99.90
44823;DHT22;51097;51.984;5.650;2023-02-13T02:59:09;11.10;99.90
44823;DHT22;51097;51.984;5.650;2023-02-13T03:01:55;11.10;99.90
44823;DHT22;51097;51.984;5.650;2023-02-13T03:04:44;11.10;99.90
44823;DHT22;51097;51.984;5.650;2023-02-13T03:07:30;11.10;99.90
44823;DHT22;51097;51.984;5.650;2023-02-13T03:09:59;11.10;99.90
44823;DHT22;51097;51.984;5.650;2023-02-13T03:13:02;11.00;99.90
44823;DHT22;51097;51.984;5.650;2023-02-13T03:15:46;11.00;99.90
44823;DHT22;51097;51.984;5.650;2023-02-13T03:18:35;11.00;99.90
44823;DHT22;51097;51.984;5.650;2023-02-13T03:24:43;11.00;99.90
44823;DHT22;51097;51.984;5.650;2023-02-13T03:30:42;11.10;99.90
44823;DHT22;51097;51.984;5.650;2023-02-13T03:38:56;11.10;99.90
44823;DHT22;51097;51.984;5.650;2023-02-13T03:41:29;11.10;99.90
44823;DHT22;51097;51.984;5.650;2023-02-13T03:46:25;11.00;99.90
44823;DHT22;51097;51.984;5.650;2023-02-13T03:48:53;11.10;99.90
44823;DHT22;51097;51.984;5.650;2023-02-13T03:54:27;11.00;99.90
44823;DHT22;51097;51.984;5.650;2023-02-13T03:57:17;11.00;99.90
44823;DHT22;51097;51.984;5.650;2023-02-13T04:00:06;11.00;99.90
44823;DHT22;51097;51.984;5.650;2023-02-13T04:02:36;11.10;99.90
44823;DHT22;51097;51.984;5.650;2023-02-13T04:05:12;11.10;99.90
44823;DHT22;51097;51.984;5.650;2023-02-13T04:07:38;11.10;99.90
44823;DHT22;51097;51.984;5.650;2023-02-13T04:10:09;11.10;99.90
44823;DHT22;51097;51.984;5.650;2023-02-13T04:15:36;11.10;99.90
44823;DHT22;51097;51.984;5.650;2023-02-13T04:20:31;11.20;99.90
44823;DHT22;51097;51.984;5.650;2023-02-13T04:23:04;11.20;99.90
44823;DHT22;51097;51.984;5.650;2023-02-13T04:25:30;11.20;99.90
44823;DHT22;51097;51.984;5.650;2023-02-13T04:27:55;11.20;99.90
44823;DHT22;51097;51.984;5.650;2023-02-13T04:30:21;11.20;99.90
44823;DHT22;51097;51.984;5.650;2023-02-13T04:32:46;11.20;99.90
44823;DHT22;51097;51.984;5.650;2023-02-13T04:35:12;11.10;99.90
44823;DHT22;51097;51.984;5.650;2023-02-13T04:37:39;11.10;99.90
44823;DHT22;51097;51.984;5.650;2023-02-13T04:40:05;11.10;99.90
44823;DHT22;51097;51.984;5.650;2023-02-13T04:42:30;11.20;99.90
44823;DHT22;51097;51.984;5.650;2023-02-13T04:44:56;11.20;99.90
44823;DHT22;51097;51.984;5.650;2023-02-13T04:47:22;11.20;99.90
44823;DHT22;51097;51.984;5.650;2023-02-13T04:49:47;11.10;99.90
44823;DHT22;51097;51.984;5.650;2023-02-13T04:52:13;11.10;99.90
44823;DHT22;51097;51.984;5.650;2023-02-13T04:54:39;11.20;99.90
44823;DHT22;51097;51.984;5.650;2023-02-13T04:57:05;11.20;99.90
44823;DHT22;51097;51.984;5.650;2023-02-13T04:59:31;11.20;99.90
44823;DHT22;51097;51.984;5.650;2023-02-13T05:01:56;11.20;99.90
44823;DHT22;51097;51.984;5.650;2023-02-13T05:04:24;11.20;99.90
44823;DHT22;51097;51.984;5.650;2023-02-13T05:06:50;11.20;99.90
44823;DHT22;51097;51.984;5.650;2023-02-13T05:09:15;11.20;99.90
44823;DHT22;51097;51.984;5.650;2023-02-13T05:11:41;11.10;99.90
44823;DHT22;51097;51.984;5.650;2023-02-13T05:14:08;11.20;99.90
44823;DHT22;51097;51.984;5.650;2023-02-13T05:16:33;11.10;99.90
44823;DHT22;51097;51.984;5.650;2023-02-13T05:18:59;11.10;99.90
44823;DHT22;51097;51.984;5.650;2023-02-13T05:21:25;11.10;99.90
44823;DHT22;51097;51.984;5.650;2023-02-13T05:24:19;11.10;99.90
44823;DHT22;51097;51.984;5.650;2023-02-13T05:26:45;11.10;99.90
44823;DHT22;51097;51.984;5.650;2023-02-13T05:29:10;11.10;99.90
44823;DHT22;51097;51.984;5.650;2023-02-13T05:31:48;11.20;99.90
44823;DHT22;51097;51.984;5.650;2023-02-13T05:34:14;11.20;99.90
44823;DHT22;51097;51.984;5.650;2023-02-13T05:36:40;11.20;99.90
44823;DHT22;51097;51.984;5.650;2023-02-13T05:39:06;11.20;99.90
44823;DHT22;51097;51.984;5.650;2023-02-13T05:41:32;11.20;99.90
44823;DHT22;51097;51.984;5.650;2023-02-13T05:43:57;11.20;99.90
44823;DHT22;51097;51.984;5.650;2023-02-13T05:46:23;11.20;99.90
44823;DHT22;51097;51.984;5.650;2023-02-13T05:48:49;11.30;99.90
44823;DHT22;51097;51.984;5.650;2023-02-13T05:51:14;11.30;99.90
44823;DHT22;51097;51.984;5.650;2023-02-13T05:53:40;11.30;99.90
44823;DHT22;51097;51.984;5.650;2023-02-13T05:56:06;11.30;99.90
44823;DHT22;51097;51.984;5.650;2023-02-13T05:58:32;11.30;99.90
44823;DHT22;51097;51.984;5.650;2023-02-13T06:00:58;11.30;99.90
44823;DHT22;51097;51.984;5.650;2023-02-13T06:03:26;11.40;99.90
44823;DHT22;51097;51.984;5.650;2023-02-13T06:05:53;11.30;99.90
44823;DHT22;51097;51.984;5.650;2023-02-13T06:08:19;11.30;99.90
44823;DHT22;51097;51.984;5.650;2023-02-13T06:10:46;11.40;99.90
44823;DHT22;51097;51.984;5.650;2023-02-13T06:13:11;11.30;99.90
44823;DHT22;51097;51.984;5.650;2023-02-13T06:15:38;11.30;99.90
44823;DHT22;51097;51.984;5.650;2023-02-13T06:18:03;11.40;99.90
44823;DHT22;51097;51.984;5.650;2023-02-13T06:20:29;11.30;99.90
44823;DHT22;51097;51.984;5.650;2023-02-13T06:22:55;11.40;99.90
44823;DHT22;51097;51.984;5.650;2023-02-13T06:25:20;11.40;99.90
44823;DHT22;51097;51.984;5.650;2023-02-13T06:27:46;11.40;99.90
44823;DHT22;51097;51.984;5.650;2023-02-13T06:30:13;11.30;99.90
44823;DHT22;51097;51.984;5.650;2023-02-13T06:32:39;11.30;99.90
44823;DHT22;51097;51.984;5.650;2023-02-13T06:35:05;11.20;99.90
44823;DHT22;51097;51.984;5.650;2023-02-13T06:37:31;11.20;99.90
44823;DHT22;51097;51.984;5.650;2023-02-13T06:39:56;11.20;99.90
44823;DHT22;51097;51.984;5.650;2023-02-13T06:42:22;11.30;99.90
44823;DHT22;51097;51.984;5.650;2023-02-13T06:44:48;11.30;99.90
44823;DHT22;51097;51.984;5.650;2023-02-13T06:47:13;11.30;99.90
44823;DHT22;51097;51.984;5.650;2023-02-13T06:49:39;11.30;99.90
44823;DHT22;51097;51.984;5.650;2023-02-13T06:52:04;11.20;99.90
44823;DHT22;51097;51.984;5.650;2023-02-13T06:54:30;11.30;99.90
44823;DHT22;51097;51.984;5.650;2023-02-13T06:56:55;11.30;99.90
44823;DHT22;51097;51.984;5.650;2023-02-13T06:59:21;11.20;99.90
44823;DHT22;51097;51.984;5.650;2023-02-13T07:01:46;11.30;99.90
44823;DHT22;51097;51.984;5.650;2023-02-13T07:04:12;11.20;99.90
44823;DHT22;51097;51.984;5.650;2023-02-13T07:06:37;11.20;99.90
44823;DHT22;51097;51.984;5.650;2023-02-13T07:09:03;11.20;99.90
44823;DHT22;51097;51.984;5.650;2023-02-13T07:11:29;11.20;99.90
44823;DHT22;51097;51.984;5.650;2023-02-13T07:13:55;11.20;99.90
44823;DHT22;51097;51.984;5.650;2023-02-13T07:16:21;11.20;99.90
44823;DHT22;51097;51.984;5.650;2023-02-13T07:18:46;11.20;99.90
44823;DHT22;51097;51.984;5.650;2023-02-13T07:21:12;11.20;99.90
44823;DHT22;51097;51.984;5.650;2023-02-13T07:23:38;11.10;99.90
44823;DHT22;51097;51.984;5.650;2023-02-13T07:26:04;11.10;99.90
44823;DHT22;51097;51.984;5.650;2023-02-13T07:28:30;11.10;99.90
44823;DHT22;51097;51.984;5.650;2023-02-13T07:30:56;11.20;99.90
44823;DHT22;51097;51.984;5.650;2023-02-13T07:33:22;11.10;99.90
44823;DHT22;51097;51.984;5.650;2023-02-13T07:35:49;11.10;99.90
44823;DHT22;51097;51.984;5.650;2023-02-13T07:38:16;11.10;99.90
44823;DHT22;51097;51.984;5.650;2023-02-13T07:40:42;11.00;99.90
44823;DHT22;51097;51.984;5.650;2023-02-13T07:43:07;10.90;99.90
44823;DHT22;51097;51.984;5.650;2023-02-13T07:45:33;10.90;99.90
44823;DHT22;51097;51.984;5.650;2023-02-13T07:47:58;10.90;99.90
44823;DHT22;51097;51.984;5.650;2023-02-13T07:50:25;10.80;99.90
44823;DHT22;51097;51.984;5.650;2023-02-13T07:55:19;10.80;99.90
44823;DHT22;51097;51.984;5.650;2023-02-13T07:57:44;10.70;99.90
44823;DHT22;51097;51.984;5.650;2023-02-13T08:00:10;10.70;99.90
44823;DHT22;51097;51.984;5.650;2023-02-13T08:02:36;10.80;99.90
44823;DHT22;51097;51.984;5.650;2023-02-13T08:05:02;10.80;99.90
44823;DHT22;51097;51.984;5.650;2023-02-13T08:07:27;10.70;99.90
44823;DHT22;51097;51.984;5.650;2023-02-13T08:09:53;10.70;99.90
44823;DHT22;51097;51.984;5.650;2023-02-13T08:12:37;10.70;99.90
44823;DHT22;51097;51.984;5.650;2023-02-13T08:15:03;10.80;99.90
44823;DHT22;51097;51.984;5.650;2023-02-13T08:17:28;10.70;99.90
44823;DHT22;51097;51.984;5.650;2023-02-13T08:19:54;10.80;99.90
44823;DHT22;51097;51.984;5.650;2023-02-13T08:22:19;10.80;99.90
44823;DHT22;51097;51.984;5.650;2023-02-13T08:24:45;10.80;99.90
44823;DHT22;51097;51.984;5.650;2023-02-13T08:27:14;10.80;99.90
44823;DHT22;51097;51.984;5.650;2023-02-13T08:29:40;10.90;99.90
44823;DHT22;51097;51.984;5.650;2023-02-13T08:32:06;11.00;99.90
44823;DHT22;51097;51.984;5.650;2023-02-13T08:34:32;11.00;99.90
44823;DHT22;51097;51.984;5.650;2023-02-13T08:36:57;10.90;99.90
44823;DHT22;51097;51.984;5.650;2023-02-13T08:39:23;11.00;99.90
44823;DHT22;51097;51.984;5.650;2023-02-13T08:41:48;11.10;99.90
44823;DHT22;51097;51.984;5.650;2023-02-13T08:44:14;11.20;99.90
44823;DHT22;51097;51.984;5.650;2023-02-13T08:46:39;11.30;99.90
44823;DHT22;51097;51.984;5.650;2023-02-13T08:49:05;11.30;99.90
44823;DHT22;51097;51.984;5.650;2023-02-13T08:51:30;11.30;99.90
44823;DHT22;51097;51.984;5.650;2023-02-13T08:53:57;11.50;99.90
44823;DHT22;51097;51.984;5.650;2023-02-13T08:56:23;11.30;99.90
44823;DHT22;51097;51.984;5.650;2023-02-13T08:58:48;11.30;99.90
44823;DHT22;51097;51.984;5.650;2023-02-13T09:01:14;11.30;99.90
44823;DHT22;51097;51.984;5.650;2023-02-13T09:03:40;11.40;99.90
44823;DHT22;51097;51.984;5.650;2023-02-13T09:06:06;11.60;99.90
44823;DHT22;51097;51.984;5.650;2023-02-13T09:08:33;11.60;99.90
44823;DHT22;51097;51.984;5.650;2023-02-13T09:11:01;11.50;99.90
44823;DHT22;51097;51.984;5.650;2023-02-13T09:13:31;11.60;99.90
44823;DHT22;51097;51.984;5.650;2023-02-13T09:16:03;11.60;99.90
44823;DHT22;51097;51.984;5.650;2023-02-13T09:18:28;11.60;99.90
44823;DHT22;51097;51.984;5.650;2023-02-13T09:21:02;11.60;99.90
44823;DHT22;51097;51.984;5.650;2023-02-13T09:23:37;11.70;99.90
44823;DHT22;51097;51.984;5.650;2023-02-13T09:26:05;11.60;99.90
44823;DHT22;51097;51.984;5.650;2023-02-13T09:28:32;11.70;99.90
44823;DHT22;51097;51.984;5.650;2023-02-13T09:30:58;11.70;99.90
44823;DHT22;51097;51.984;5.650;2023-02-13T09:33:24;11.80;99.90
44823;DHT22;51097;51.984;5.650;2023-02-13T09:35:51;11.80;99.90
44823;DHT22;51097;51.984;5.650;2023-02-13T09:38:17;11.70;99.90
44823;DHT22;51097;51.984;5.650;2023-02-13T09:40:53;11.80;99.90
44823;DHT22;51097;51.984;5.650;2023-02-13T09:43:45;11.90;99.90
44823;DHT22;51097;51.984;5.650;2023-02-13T09:48:52;12.10;99.90
44823;DHT22;51097;51.984;5.650;2023-02-13T09:51:20;12.20;99.90
44823;DHT22;51097;51.984;5.650;2023-02-13T09:53:55;12.30;99.90
44823;DHT22;51097;51.984;5.650;2023-02-13T09:56:43;12.00;99.90
44823;DHT22;51097;51.984;5.650;2023-02-13T09:59:42;12.00;99.90
44823;DHT22;51097;51.984;5.650;2023-02-13T10:10:23;12.30;99.90
44823;DHT22;51097;51.984;5.650;2023-02-13T10:18:15;12.70;99.90
44823;DHT22;51097;51.984;5.650;2023-02-13T10:23:17;12.70;99.90
44823;DHT22;51097;51.984;5.650;2023-02-13T10:25:56;12.80;99.90
44823;DHT22;51097;51.984;5.650;2023-02-13T10:31:04;13.00;99.90
44823;DHT22;51097;51.984;5.650;2023-02-13T10:38:43;13.00;99.90
44823;DHT22;51097;51.984;5.650;2023-02-13T10:47:01;13.10;99.90
44823;DHT22;51097;51.984;5.650;2023-02-13T10:58:06;13.40;99.90
44823;DHT22;51097;51.984;5.650;2023-02-13T11:03:25;13.30;99.90
44823;DHT22;51097;51.984;5.650;2023-02-13T11:05:52;13.10;99.90
44823;DHT22;51097;51.984;5.650;2023-02-13T11:08:24;13.20;99.90
44823;DHT22;51097;51.984;5.650;2023-02-13T11:10:51;13.40;99.90
44823;DHT22;51097;51.984;5.650;2023-02-13T11:13:22;13.50;99.90
44823;DHT22;51097;51.984;5.650;2023-02-13T11:18:30;13.80;99.90
44823;DHT22;51097;51.984;5.650;2023-02-13T11:21:08;13.80;99.90
44823;DHT22;51097;51.984;5.650;2023-02-13T11:23:58;13.90;99.90
44823;DHT22;51097;51.984;5.650;2023-02-13T11:26:33;13.80;99.90
44823;DHT22;51097;51.984;5.650;2023-02-13T11:29:03;13.80;99.90
44823;DHT22;51097;51.984;5.650;2023-02-13T11:31:32;13.90;99.90
44823;DHT22;51097;51.984;5.650;2023-02-13T11:33:59;14.00;99.90
44823;DHT22;51097;51.984;5.650;2023-02-13T11:36:42;13.80;99.90
44823;DHT22;51097;51.984;5.650;2023-02-13T11:39:25;14.10;99.90
44823;DHT22;51097;51.984;5.650;2023-02-13T11:41:51;14.20;99.90
44823;DHT22;51097;51.984;5.650;2023-02-13T11:44:30;14.20;99.90
44823;DHT22;51097;51.984;5.650;2023-02-13T11:47:00;14.20;99.90
44823;DHT22;51097;51.984;5.650;2023-02-13T11:49:30;14.40;99.90
44823;DHT22;51097;51.984;5.650;2023-02-13T11:51:59;14.30;99.90
44823;DHT22;51097;51.984;5.650;2023-02-13T11:54:42;14.20;99.90
44823;DHT22;51097;51.984;5.650;2023-02-13T11:57:21;14.50;99.90
44823;DHT22;51097;51.984;5.650;2023-02-13T11:59:50;14.40;99.90
44823;DHT22;51097;51.984;5.650;2023-02-13T12:02:21;14.40;99.90
44823;DHT22;51097;51.984;5.650;2023-02-13T12:04:53;14.40;99.90
44823;DHT22;51097;51.984;5.650;2023-02-13T12:07:30;14.50;99.90
44823;DHT22;51097;51.984;5.650;2023-02-13T12:10:18;14.60;99.90
44823;DHT22;51097;51.984;5.650;2023-02-13T12:15:23;14.90;99.90
44823;DHT22;51097;51.984;5.650;2023-02-13T12:20:51;15.10;99.90
44823;DHT22;51097;51.984;5.650;2023-02-13T12:23:32;14.90;99.90
44823;DHT22;51097;51.984;5.650;2023-02-13T12:32:47;15.10;99.90
44823;DHT22;51097;51.984;5.650;2023-02-13T12:41:17;15.20;99.90
44823;DHT22;51097;51.984;5.650;2023-02-13T12:52:38;15.60;99.90
44823;DHT22;51097;51.984;5.650;2023-02-13T12:55:59;15.70;99.90
44823;DHT22;51097;51.984;5.650;2023-02-13T12:58:47;15.70;99.90
44823;DHT22;51097;51.984;5.650;2023-02-13T13:04:15;15.60;99.90
44823;DHT22;51097;51.984;5.650;2023-02-13T13:09:57;16.20;99.90
44823;DHT22;51097;51.984;5.650;2023-02-13T13:15:23;16.30;99.90
44823;DHT22;51097;51.984;5.650;2023-02-13T13:18:06;16.30;99.90
44823;DHT22;51097;51.984;5.650;2023-02-13T13:20:53;16.30;99.90
44823;DHT22;51097;51.984;5.650;2023-02-13T13:29:00;16.50;99.90
44823;DHT22;51097;51.984;5.650;2023-02-13T13:31:28;16.60;99.90
44823;DHT22;51097;51.984;5.650;2023-02-13T13:33:59;16.70;99.90
44823;DHT22;51097;51.984;5.650;2023-02-13T13:36:42;16.80;99.90
44823;DHT22;51097;51.984;5.650;2023-02-13T13:44:49;16.90;99.90
44823;DHT22;51097;51.984;5.650;2023-02-13T13:47:25;16.90;99.90
44823;DHT22;51097;51.984;5.650;2023-02-13T13:49:58;17.00;99.90
44823;DHT22;51097;51.984;5.650;2023-02-13T13:52:35;17.00;99.90
44823;DHT22;51097;51.984;5.650;2023-02-13T13:55:04;17.00;99.90
44823;DHT22;51097;51.984;5.650;2023-02-13T14:02:49;16.80;99.90
44823;DHT22;51097;51.984;5.650;2023-02-13T14:05:30;16.80;99.90
44823;DHT22;51097;51.984;5.650;2023-02-13T14:07:58;16.90;99.90
44823;DHT22;51097;51.984;5.650;2023-02-13T14:18:16;17.00;99.90
44823;DHT22;51097;51.984;5.650;2023-02-13T14:31:24;17.10;99.90
44823;DHT22;51097;51.984;5.650;2023-02-13T14:36:34;17.40;99.90
44823;DHT22;51097;51.984;5.650;2023-02-13T14:39:07;17.50;99.90
44823;DHT22;51097;51.984;5.650;2023-02-13T14:47:38;17.30;99.90
44823;DHT22;51097;51.984;5.650;2023-02-13T14:50:14;17.30;99.90
44823;DHT22;51097;51.984;5.650;2023-02-13T14:52:44;17.20;99.90
44823;DHT22;51097;51.984;5.650;2023-02-13T14:57:53;17.00;99.90
44823;DHT22;51097;51.984;5.650;2023-02-13T15:00:30;16.70;99.90
44823;DHT22;51097;51.984;5.650;2023-02-13T15:03:17;16.60;99.90
44823;DHT22;51097;51.984;5.650;2023-02-13T15:05:50;16.60;99.90
44823;DHT22;51097;51.984;5.650;2023-02-13T15:08:26;16.50;99.90
44823;DHT22;51097;51.984;5.650;2023-02-13T15:10:54;16.50;99.90
44823;DHT22;51097;51.984;5.650;2023-02-13T15:13:22;16.30;99.90
44823;DHT22;51097;51.984;5.650;2023-02-13T15:15:57;16.30;99.90
44823;DHT22;51097;51.984;5.650;2023-02-13T15:18:28;16.30;99.90
44823;DHT22;51097;51.984;5.650;2023-02-13T15:20:56;16.20;99.90
44823;DHT22;51097;51.984;5.650;2023-02-13T15:23:27;16.20;99.90
44823;DHT22;51097;51.984;5.650;2023-02-13T15:25:58;16.20;99.90
44823;DHT22;51097;51.984;5.650;2023-02-13T15:28:26;16.20;99.90
44823;DHT22;51097;51.984;5.650;2023-02-13T15:30:54;16.30;99.90
44823;DHT22;51097;51.984;5.650;2023-02-13T15:33:22;16.20;99.90
44823;DHT22;51097;51.984;5.650;2023-02-13T15:36:24;16.10;99.90
44823;DHT22;51097;51.984;5.650;2023-02-13T15:39:00;16.30;99.90
44823;DHT22;51097;51.984;5.650;2023-02-13T15:41:33;16.20;99.90
44823;DHT22;51097;51.984;5.650;2023-02-13T15:44:00;16.00;99.90
44823;DHT22;51097;51.984;5.650;2023-02-13T15:46:29;15.80;99.90
44823;DHT22;51097;51.984;5.650;2023-02-13T15:48:57;15.80;99.90
44823;DHT22;51097;51.984;5.650;2023-02-13T15:51:25;15.90;99.90
44823;DHT22;51097;51.984;5.650;2023-02-13T15:54:03;15.80;99.90
44823;DHT22;51097;51.984;5.650;2023-02-13T15:56:29;15.70;99.90
44823;DHT22;51097;51.984;5.650;2023-02-13T15:58:57;15.70;99.90
44823;DHT22;51097;51.984;5.650;2023-02-13T16:01:23;15.70;99.90
44823;DHT22;51097;51.984;5.650;2023-02-13T16:03:53;15.60;99.90
44823;DHT22;51097;51.984;5.650;2023-02-13T16:06:22;15.40;99.90
44823;DHT22;51097;51.984;5.650;2023-02-13T16:08:53;15.40;99.90
44823;DHT22;51097;51.984;5.650;2023-02-13T16:16:22;15.20;99.90
44823;DHT22;51097;51.984;5.650;2023-02-13T16:18:49;15.20;99.90
44823;DHT22;51097;51.984;5.650;2023-02-13T16:21:15;15.20;99.90
44823;DHT22;51097;51.984;5.650;2023-02-13T16:23:45;15.00;99.90
44823;DHT22;51097;51.984;5.650;2023-02-13T16:26:14;15.00;99.90
44823;DHT22;51097;51.984;5.650;2023-02-13T16:28:40;15.10;99.90
44823;DHT22;51097;51.984;5.650;2023-02-13T16:31:14;15.00;99.90
44823;DHT22;51097;51.984;5.650;2023-02-13T16:33:40;15.00;99.90
44823;DHT22;51097;51.984;5.650;2023-02-13T16:38:38;14.90;99.90
44823;DHT22;51097;51.984;5.650;2023-02-13T16:43:56;14.80;99.90
44823;DHT22;51097;51.984;5.650;2023-02-13T16:46:41;14.60;99.90
44823;DHT22;51097;51.984;5.650;2023-02-13T16:49:20;14.50;99.90
44823;DHT22;51097;51.984;5.650;2023-02-13T16:51:47;14.50;99.90
44823;DHT22;51097;51.984;5.650;2023-02-13T16:54:30;14.40;99.90
44823;DHT22;51097;51.984;5.650;2023-02-13T16:57:15;14.40;99.90
44823;DHT22;51097;51.984;5.650;2023-02-13T16:59:57;14.30;99.90
44823;DHT22;51097;51.984;5.650;2023-02-13T17:02:35;14.30;99.90
44823;DHT22;51097;51.984;5.650;2023-02-13T17:10:30;13.90;99.90
44823;DHT22;51097;51.984;5.650;2023-02-13T17:13:00;14.00;99.90
44823;DHT22;51097;51.984;5.650;2023-02-13T17:15:29;13.80;99.90
44823;DHT22;51097;51.984;5.650;2023-02-13T17:17:56;13.90;99.90
44823;DHT22;51097;51.984;5.650;2023-02-13T17:20:24;13.70;99.90
44823;DHT22;51097;51.984;5.650;2023-02-13T17:22:52;13.70;99.90
44823;DHT22;51097;51.984;5.650;2023-02-13T17:25:24;13.60;99.90
44823;DHT22;51097;51.984;5.650;2023-02-13T17:27:58;13.60;99.90
44823;DHT22;51097;51.984;5.650;2023-02-13T17:30:27;13.50;99.90
44823;DHT22;51097;51.984;5.650;2023-02-13T17:32:57;13.20;99.90
44823;DHT22;51097;51.984;5.650;2023-02-13T17:35:23;13.30;99.90
44823;DHT22;51097;51.984;5.650;2023-02-13T17:37:49;13.20;99.90
44823;DHT22;51097;51.984;5.650;2023-02-13T17:40:18;13.10;99.90
44823;DHT22;51097;51.984;5.650;2023-02-13T17:42:46;13.00;99.90
44823;DHT22;51097;51.984;5.650;2023-02-13T17:45:14;13.00;99.90
44823;DHT22;51097;51.984;5.650;2023-02-13T17:47:40;12.90;99.90
44823;DHT22;51097;51.984;5.650;2023-02-13T17:50:06;12.80;99.90
44823;DHT22;51097;51.984;5.650;2023-02-13T17:52:32;12.80;99.90
44823;DHT22;51097;51.984;5.650;2023-02-13T17:54:58;12.70;99.90
44823;DHT22;51097;51.984;5.650;2023-02-13T17:57:24;12.80;99.90
44823;DHT22;51097;51.984;5.650;2023-02-13T17:59:49;12.70;99.90
44823;DHT22;51097;51.984;5.650;2023-02-13T18:02:16;12.60;99.90
44823;DHT22;51097;51.984;5.650;2023-02-13T18:04:42;12.50;99.90
44823;DHT22;51097;51.984;5.650;2023-02-13T18:07:10;12.50;99.90
44823;DHT22;51097;51.984;5.650;2023-02-13T18:09:35;12.40;99.90
44823;DHT22;51097;51.984;5.650;2023-02-13T18:12:02;12.30;99.90
44823;DHT22;51097;51.984;5.650;2023-02-13T18:14:29;12.20;99.90
44823;DHT22;51097;51.984;5.650;2023-02-13T18:16:55;12.20;99.90
44823;DHT22;51097;51.984;5.650;2023-02-13T18:19:21;12.20;99.90
44823;DHT22;51097;51.984;5.650;2023-02-13T18:21:46;12.10;99.90
44823;DHT22;51097;51.984;5.650;2023-02-13T18:24:12;12.10;99.90
44823;DHT22;51097;51.984;5.650;2023-02-13T18:26:37;12.10;99.90
44823;DHT22;51097;51.984;5.650;2023-02-13T18:29:03;12.10;99.90
44823;DHT22;51097;51.984;5.650;2023-02-13T18:31:28;12.10;99.90
44823;DHT22;51097;51.984;5.650;2023-02-13T18:33:54;12.20;99.90
44823;DHT22;51097;51.984;5.650;2023-02-13T18:36:20;12.10;99.90
44823;DHT22;51097;51.984;5.650;2023-02-13T18:38:45;12.00;99.90
44823;DHT22;51097;51.984;5.650;2023-02-13T18:41:11;11.90;99.90
44823;DHT22;51097;51.984;5.650;2023-02-13T18:43:37;12.00;99.90
44823;DHT22;51097;51.984;5.650;2023-02-13T18:46:02;12.00;99.90
44823;DHT22;51097;51.984;5.650;2023-02-13T18:48:30;11.90;99.90
44823;DHT22;51097;51.984;5.650;2023-02-13T18:50:58;11.90;99.90
44823;DHT22;51097;51.984;5.650;2023-02-13T18:53:24;11.90;99.90
44823;DHT22;51097;51.984;5.650;2023-02-13T18:55:58;11.80;99.90
44823;DHT22;51097;51.984;5.650;2023-02-13T18:58:25;11.80;99.90
44823;DHT22;51097;51.984;5.650;2023-02-13T19:00:50;11.70;99.90
44823;DHT22;51097;51.984;5.650;2023-02-13T19:03:16;11.70;99.90